createdAt,value
2019-03-20T00:00:11.192Z,99.90
2019-03-20T00:02:39.750Z,99.90
2019-03-20T00:05:08.925Z,99.90
2019-03-20T00:07:37.490Z,99.90
2019-03-20T00:10:08.226Z,99.90
2019-03-20T00:12:37.153Z,99.90
2019-03-20T00:15:15.913Z,99.90
2019-03-20T00:17:44.852Z,99.90
2019-03-20T00:20:14.595Z,99.90
2019-03-20T00:22:43.469Z,99.90
2019-03-20T00:25:12.763Z,99.90
2019-03-20T00:27:41.934Z,99.90
2019-03-20T00:30:18.200Z,99.90
2019-03-20T00:32:47.137Z,99.90
2019-03-20T00:35:15.731Z,99.90
2019-03-20T00:37:44.304Z,99.90
2019-03-20T00:40:17.242Z,99.90
2019-03-20T00:42:45.888Z,99.90
2019-03-20T00:45:22.163Z,99.90
2019-03-20T00:47:50.731Z,99.90
2019-03-20T00:50:22.680Z,99.90
2019-03-20T00:52:51.239Z,99.90
2019-03-20T00:55:20.456Z,99.90
2019-03-20T00:57:49.169Z,99.90
2019-03-20T01:00:21.594Z,99.90
2019-03-20T01:02:50.122Z,99.90
2019-03-20T01:05:18.878Z,99.90
2019-03-20T01:07:47.610Z,99.90
2019-03-20T01:10:21.092Z,99.90
2019-03-20T01:12:49.817Z,99.90
2019-03-20T01:15:18.467Z,99.90
2019-03-20T01:17:47.304Z,99.90
2019-03-20T01:20:21.107Z,99.90
2019-03-20T01:22:49.841Z,99.90
2019-03-20T01:25:18.968Z,99.90
2019-03-20T01:27:47.550Z,99.90
2019-03-20T01:30:35.884Z,99.90
2019-03-20T01:33:12.649Z,99.90
2019-03-20T01:35:41.513Z,99.90
2019-03-20T01:38:11.180Z,99.90
2019-03-20T01:40:40.610Z,99.90
2019-03-20T01:43:09.682Z,99.90
2019-03-20T01:45:38.652Z,99.90
2019-03-20T01:48:07.222Z,99.90
2019-03-20T01:50:35.807Z,99.90
2019-03-20T01:53:04.862Z,99.90
2019-03-20T01:55:33.441Z,99.90
2019-03-20T01:58:02.007Z,99.90
2019-03-20T02:00:31.065Z,99.90
2019-03-20T02:02:59.642Z,99.90
2019-03-20T02:05:35.904Z,99.90
2019-03-20T02:07:59.031Z,99.90
2019-03-20T02:10:27.655Z,99.90
2019-03-20T02:12:58.582Z,99.90
2019-03-20T02:15:37.703Z,99.90
2019-03-20T02:17:57.399Z,99.90
2019-03-20T02:20:26.361Z,99.90
2019-03-20T02:22:54.973Z,99.90
2019-03-20T02:25:23.521Z,99.90
2019-03-20T02:27:52.088Z,99.90
2019-03-20T02:30:23.593Z,99.90
2019-03-20T02:32:52.168Z,99.90
2019-03-20T02:35:20.764Z,99.90
2019-03-20T02:37:49.326Z,99.90
2019-03-20T02:40:17.923Z,99.90
2019-03-20T02:42:46.490Z,99.90
2019-03-20T02:45:16.222Z,99.90
2019-03-20T02:47:44.862Z,99.90
2019-03-20T02:50:14.626Z,99.90
2019-03-20T02:52:43.184Z,99.90
2019-03-20T02:55:12.421Z,99.90
2019-03-20T02:57:40.998Z,99.90
2019-03-20T03:00:12.673Z,99.90
2019-03-20T03:02:41.660Z,99.90
2019-03-20T03:05:10.894Z,99.90
2019-03-20T03:07:39.868Z,99.90
2019-03-20T03:10:16.708Z,99.90
2019-03-20T03:12:45.610Z,99.90
2019-03-20T03:15:14.808Z,99.90
2019-03-20T03:17:43.403Z,99.90
2019-03-20T03:20:13.596Z,99.90
2019-03-20T03:22:42.198Z,99.90
2019-03-20T03:25:12.341Z,99.90
2019-03-20T03:27:40.932Z,99.90
2019-03-20T03:30:17.101Z,99.90
2019-03-20T03:32:45.827Z,99.90
2019-03-20T03:35:17.861Z,99.90
2019-03-20T03:37:45.224Z,99.90
2019-03-20T03:40:21.006Z,99.90
2019-03-20T03:42:49.701Z,99.90
2019-03-20T03:45:18.316Z,99.90
2019-03-20T03:47:46.954Z,99.90
2019-03-20T03:50:15.875Z,99.90
2019-03-20T03:52:44.549Z,99.90
2019-03-20T03:55:16.161Z,99.90
2019-03-20T03:57:45.242Z,99.90
2019-03-20T04:00:17.927Z,99.90
2019-03-20T04:02:46.826Z,99.90
2019-03-20T04:05:15.561Z,99.90
2019-03-20T04:07:44.286Z,99.90
2019-03-20T04:10:15.062Z,99.90
2019-03-20T04:12:43.643Z,99.90
2019-03-20T04:15:14.231Z,99.90
2019-03-20T04:17:44.450Z,99.90
2019-03-20T04:20:17.965Z,99.90
2019-03-20T04:22:46.942Z,99.90
2019-03-20T04:25:16.360Z,99.90
2019-03-20T04:27:44.958Z,99.90
2019-03-20T04:30:15.897Z,99.90
2019-03-20T04:32:44.442Z,99.90
2019-03-20T04:35:13.237Z,99.90
2019-03-20T04:37:41.834Z,99.90
2019-03-20T04:40:18.322Z,99.90
2019-03-20T04:42:47.045Z,99.90
2019-03-20T04:45:16.342Z,99.90
2019-03-20T04:47:44.946Z,99.90
2019-03-20T04:50:14.879Z,99.90
2019-03-20T04:52:43.636Z,99.90
2019-03-20T04:55:13.481Z,99.90
2019-03-20T04:57:42.133Z,99.90
2019-03-20T05:00:19.393Z,99.90
2019-03-20T05:02:47.993Z,99.90
2019-03-20T05:05:16.914Z,99.90
2019-03-20T05:07:45.839Z,99.90
2019-03-20T05:10:15.871Z,99.90
2019-03-20T05:12:44.540Z,99.90
2019-03-20T05:15:14.239Z,99.90
2019-03-20T05:17:43.181Z,99.90
2019-03-20T05:20:20.197Z,99.90
2019-03-20T05:22:48.875Z,99.90
2019-03-20T05:25:17.583Z,99.90
2019-03-20T05:27:46.172Z,99.90
2019-03-20T05:30:15.688Z,99.90
2019-03-20T05:32:44.336Z,99.90
2019-03-20T05:35:13.452Z,99.90
2019-03-20T05:37:42.140Z,99.90
2019-03-20T05:40:13.748Z,99.90
2019-03-20T05:42:42.328Z,99.90
2019-03-20T05:45:13.234Z,99.90
2019-03-20T05:47:43.127Z,99.90
2019-03-20T05:50:13.337Z,99.90
2019-03-20T05:52:41.933Z,99.90
2019-03-20T05:55:10.849Z,99.90
2019-03-20T05:57:39.421Z,99.90
2019-03-20T06:00:14.257Z,99.90
2019-03-20T06:02:42.965Z,99.90
2019-03-20T06:05:11.938Z,99.90
2019-03-20T06:07:40.631Z,99.90
2019-03-20T06:10:11.930Z,99.90
2019-03-20T06:12:40.651Z,99.90
2019-03-20T06:15:09.494Z,99.90
2019-03-20T06:17:38.419Z,99.90
2019-03-20T06:20:09.600Z,99.90
2019-03-20T06:22:38.567Z,99.90
2019-03-20T06:25:10.754Z,99.90
2019-03-20T06:27:39.390Z,99.90
2019-03-20T06:30:13.829Z,99.90
2019-03-20T06:32:42.397Z,99.90
2019-03-20T06:35:11.556Z,99.90
2019-03-20T06:37:40.131Z,99.90
2019-03-20T06:40:13.362Z,99.90
2019-03-20T06:42:42.001Z,99.90
2019-03-20T06:45:16.504Z,99.90
2019-03-20T06:47:45.094Z,99.90
2019-03-20T06:50:19.671Z,99.90
2019-03-20T06:52:48.233Z,99.90
2019-03-20T06:55:16.858Z,99.90
2019-03-20T06:57:45.522Z,99.90
2019-03-20T07:00:39.768Z,99.90
2019-03-20T07:03:14.346Z,99.90
2019-03-20T07:05:53.707Z,99.90
2019-03-20T07:08:24.829Z,99.90
2019-03-20T07:11:07.724Z,99.90
2019-03-20T07:13:36.625Z,99.90
2019-03-20T07:16:05.752Z,99.90
2019-03-20T07:18:34.480Z,99.90
2019-03-20T07:21:03.614Z,99.90
2019-03-20T07:23:33.879Z,99.90
2019-03-20T07:26:02.678Z,99.90
2019-03-20T07:28:31.613Z,99.90
2019-03-20T07:31:00.309Z,99.90
2019-03-20T07:33:29.009Z,99.90
2019-03-20T07:35:57.728Z,99.90
2019-03-20T07:38:26.895Z,99.90
2019-03-20T07:40:58.126Z,99.90
2019-03-20T07:43:29.880Z,99.90
2019-03-20T07:45:58.585Z,99.90
2019-03-20T07:48:27.156Z,99.90
2019-03-20T07:50:55.907Z,99.90
2019-03-20T07:53:24.920Z,99.90
2019-03-20T07:55:55.280Z,99.90
2019-03-20T07:58:24.236Z,99.90
2019-03-20T08:00:52.950Z,99.90
2019-03-20T08:03:21.544Z,99.90
2019-03-20T08:05:50.131Z,99.90
2019-03-20T08:08:18.714Z,99.90
2019-03-20T08:10:47.307Z,99.90
2019-03-20T08:13:15.988Z,99.90
2019-03-20T08:15:44.560Z,99.90
2019-03-20T08:18:13.201Z,99.90
2019-03-20T08:20:41.794Z,99.90
2019-03-20T08:23:10.386Z,99.90
2019-03-20T08:25:40.926Z,99.90
2019-03-20T08:28:09.652Z,99.90
2019-03-20T08:30:46.658Z,99.90
2019-03-20T08:33:15.338Z,99.90
2019-03-20T08:35:47.162Z,99.90
2019-03-20T08:38:18.485Z,99.90
2019-03-20T08:40:46.042Z,99.90
2019-03-20T08:43:24.567Z,99.90
2019-03-20T08:45:53.144Z,99.90
2019-03-20T08:48:25.939Z,99.90
2019-03-20T08:50:54.560Z,99.90
2019-03-20T08:53:23.129Z,99.90
2019-03-20T08:55:51.802Z,99.90
2019-03-20T08:58:20.463Z,99.90
2019-03-20T09:00:54.718Z,99.90
2019-03-20T09:03:23.321Z,99.90
2019-03-20T09:05:51.901Z,99.90
2019-03-20T09:08:28.728Z,99.90
2019-03-20T09:10:50.783Z,99.90
2019-03-20T09:13:19.340Z,99.90
2019-03-20T09:15:48.056Z,99.90
2019-03-20T09:18:16.782Z,99.90
2019-03-20T09:20:45.372Z,99.30
2019-03-20T09:23:14.156Z,97.80
2019-03-20T09:25:42.780Z,98.90
2019-03-20T09:28:11.525Z,98.80
2019-03-20T09:30:40.133Z,97.40
2019-03-20T09:33:08.698Z,98.20
2019-03-20T09:35:37.341Z,97.90
2019-03-20T09:38:06.049Z,98.50
2019-03-20T09:40:36.183Z,97.50
2019-03-20T09:43:04.883Z,98.10
2019-03-20T09:45:33.458Z,97.70
2019-03-20T09:48:02.032Z,95.70
2019-03-20T09:50:30.589Z,95.70
2019-03-20T09:52:59.191Z,96.30
2019-03-20T09:55:27.740Z,97.10
2019-03-20T09:57:56.333Z,96.00
2019-03-20T10:00:28.161Z,96.30
2019-03-20T10:02:56.833Z,96.10
2019-03-20T10:05:25.587Z,93.80
2019-03-20T10:07:54.171Z,92.60
2019-03-20T10:10:24.727Z,93.20
2019-03-20T10:12:53.272Z,92.90
2019-03-20T10:15:26.033Z,91.80
2019-03-20T10:17:54.714Z,88.60
2019-03-20T10:20:23.827Z,86.00
2019-03-20T10:22:52.455Z,83.10
2019-03-20T10:25:21.036Z,82.60
2019-03-20T10:27:51.793Z,84.50
2019-03-20T10:30:27.145Z,83.70
2019-03-20T10:32:55.803Z,88.30
2019-03-20T10:35:24.440Z,86.50
2019-03-20T10:37:53.195Z,82.60
2019-03-20T10:40:25.623Z,84.10
2019-03-20T10:42:54.212Z,83.70
2019-03-20T10:45:22.861Z,82.50
2019-03-20T10:47:53.274Z,81.20
2019-03-20T10:50:23.654Z,80.30
2019-03-20T10:52:52.267Z,80.30
2019-03-20T10:55:20.835Z,76.70
2019-03-20T10:57:50.100Z,80.30
2019-03-20T11:00:25.776Z,83.00
2019-03-20T11:03:01.791Z,84.30
2019-03-20T11:05:30.846Z,85.60
2019-03-20T11:08:03.092Z,90.60
2019-03-20T11:10:33.501Z,92.90
2019-03-20T11:13:02.094Z,91.90
2019-03-20T11:15:30.673Z,88.30
2019-03-20T11:18:03.695Z,86.80
2019-03-20T11:20:32.592Z,86.50
2019-03-20T11:23:01.595Z,82.90
2019-03-20T11:25:30.239Z,81.00
2019-03-20T11:27:58.811Z,82.20
2019-03-20T11:30:31.039Z,82.90
2019-03-20T11:32:59.719Z,84.00
2019-03-20T11:35:28.282Z,81.80
2019-03-20T11:37:56.873Z,81.20
2019-03-20T11:40:30.981Z,79.00
2019-03-20T11:42:59.711Z,79.20
2019-03-20T11:45:28.407Z,76.50
2019-03-20T11:47:57.050Z,72.60
2019-03-20T11:50:28.073Z,69.40
2019-03-20T11:52:56.784Z,70.90
2019-03-20T11:55:25.369Z,70.30
2019-03-20T11:57:54.064Z,69.70
2019-03-20T12:00:23.474Z,69.50
2019-03-20T12:02:52.081Z,66.50
2019-03-20T12:05:20.739Z,71.90
2019-03-20T12:07:49.393Z,73.40
2019-03-20T12:10:26.072Z,75.70
2019-03-20T12:12:54.721Z,76.30
2019-03-20T12:15:23.362Z,77.40
2019-03-20T12:17:51.962Z,81.00
2019-03-20T12:20:22.538Z,80.70
2019-03-20T12:22:52.052Z,80.80
2019-03-20T12:25:26.104Z,81.60
2019-03-20T12:27:54.780Z,82.30
2019-03-20T12:30:28.808Z,86.40
2019-03-20T12:32:57.401Z,88.80
2019-03-20T12:35:28.483Z,83.00
2019-03-20T12:37:57.082Z,75.50
2019-03-20T12:40:27.380Z,74.90
2019-03-20T12:42:56.384Z,75.50
2019-03-20T12:45:29.674Z,77.20
2019-03-20T12:47:58.257Z,76.80
2019-03-20T12:50:26.976Z,78.30
2019-03-20T12:53:01.712Z,76.70
2019-03-20T12:55:32.454Z,76.40
2019-03-20T12:58:04.677Z,77.50
2019-03-20T13:00:34.641Z,74.20
2019-03-20T13:03:05.094Z,72.40
2019-03-20T13:05:33.627Z,73.70
2019-03-20T13:08:05.973Z,73.70
2019-03-20T13:10:51.914Z,73.80
2019-03-20T13:13:20.574Z,75.50
2019-03-20T13:15:49.120Z,76.70
2019-03-20T13:18:17.692Z,75.90
2019-03-20T13:20:46.293Z,72.60
2019-03-20T13:23:20.980Z,73.20
2019-03-20T13:25:49.560Z,73.70
2019-03-20T13:28:18.143Z,70.50
2019-03-20T13:30:55.613Z,69.20
2019-03-20T13:33:26.132Z,68.50
2019-03-20T13:35:54.435Z,68.80
2019-03-20T13:38:23.001Z,67.80
2019-03-20T13:40:51.665Z,68.10
2019-03-20T13:43:20.259Z,66.90
2019-03-20T13:45:48.898Z,69.50
2019-03-20T13:48:17.459Z,70.20
2019-03-20T13:50:46.041Z,70.60
2019-03-20T13:53:15.519Z,68.50
2019-03-20T13:55:44.287Z,68.60
2019-03-20T13:58:12.920Z,72.90
2019-03-20T14:00:41.520Z,73.70
2019-03-20T14:03:10.085Z,69.50
2019-03-20T14:05:38.685Z,70.40
2019-03-20T14:08:07.271Z,71.40
2019-03-20T14:10:49.618Z,73.80
2019-03-20T14:13:06.578Z,74.10
2019-03-20T14:15:35.145Z,73.70
2019-03-20T14:18:03.803Z,70.20
2019-03-20T14:20:33.997Z,67.90
2019-03-20T14:23:02.557Z,67.00
2019-03-20T14:25:31.153Z,71.40
2019-03-20T14:27:59.723Z,71.20
2019-03-20T14:30:29.553Z,70.90
2019-03-20T14:32:58.362Z,71.40
2019-03-20T14:35:26.964Z,70.50
2019-03-20T14:37:55.779Z,69.30
2019-03-20T14:40:36.300Z,70.00
2019-03-20T14:43:02.868Z,70.00
2019-03-20T14:45:31.492Z,68.30
2019-03-20T14:48:00.392Z,69.20
2019-03-20T14:50:32.055Z,71.10
2019-03-20T14:53:00.704Z,72.30
2019-03-20T14:55:29.371Z,73.80
2019-03-20T14:57:57.964Z,75.40
2019-03-20T15:00:30.158Z,76.80
2019-03-20T15:02:58.921Z,76.30
2019-03-20T15:05:27.618Z,77.00
2019-03-20T15:07:56.270Z,77.80
2019-03-20T15:10:25.906Z,78.30
2019-03-20T15:12:55.108Z,78.50
2019-03-20T15:15:44.202Z,79.00
2019-03-20T15:18:12.771Z,83.30
2019-03-20T15:20:41.360Z,87.30
2019-03-20T15:23:09.922Z,90.00
2019-03-20T15:25:38.533Z,90.90
2019-03-20T15:28:07.077Z,92.10
2019-03-20T15:30:35.706Z,92.10
2019-03-20T15:33:04.434Z,93.30
2019-03-20T15:35:33.015Z,93.00
2019-03-20T15:38:01.584Z,92.90
2019-03-20T15:40:31.036Z,92.80
2019-03-20T15:42:59.962Z,93.20
2019-03-20T15:45:28.542Z,94.20
2019-03-20T15:47:57.138Z,94.90
2019-03-20T15:50:27.274Z,95.30
2019-03-20T15:52:56.011Z,96.10
2019-03-20T15:55:33.386Z,97.00
2019-03-20T15:58:02.008Z,97.60
2019-03-20T16:00:30.605Z,98.00
2019-03-20T16:03:14.018Z,98.40
2019-03-20T16:05:42.647Z,99.40
2019-03-20T16:08:11.264Z,99.80
2019-03-20T16:10:39.952Z,99.90
2019-03-20T16:13:08.604Z,99.90
2019-03-20T16:15:37.262Z,99.90
2019-03-20T16:18:05.991Z,99.90
2019-03-20T16:20:34.586Z,99.90
2019-03-20T16:23:03.198Z,99.90
2019-03-20T16:25:31.759Z,99.90
2019-03-20T16:28:00.344Z,99.90
2019-03-20T16:30:32.743Z,99.90
2019-03-20T16:33:01.356Z,99.90
2019-03-20T16:35:29.931Z,99.90
2019-03-20T16:37:58.537Z,99.90
2019-03-20T16:40:34.420Z,99.90
2019-03-20T16:43:03.023Z,99.90
2019-03-20T16:45:33.542Z,99.90
2019-03-20T16:48:02.158Z,99.90
2019-03-20T16:50:30.709Z,99.90
2019-03-20T16:52:59.306Z,99.90
2019-03-20T16:55:27.932Z,99.90
2019-03-20T16:57:56.534Z,99.90
2019-03-20T17:00:32.197Z,99.90
2019-03-20T17:03:00.970Z,99.90
2019-03-20T17:05:30.462Z,99.90
2019-03-20T17:07:59.200Z,99.90
2019-03-20T17:10:33.364Z,99.90
2019-03-20T17:13:02.300Z,99.90
2019-03-20T17:15:35.749Z,99.90
2019-03-20T17:18:05.205Z,99.90
2019-03-20T17:20:33.806Z,99.90
2019-03-20T17:23:02.562Z,99.90
2019-03-20T17:25:31.134Z,99.90
2019-03-20T17:27:59.783Z,99.90
2019-03-20T17:30:33.681Z,99.90
2019-03-20T17:33:02.328Z,99.90
2019-03-20T17:35:31.030Z,99.90
2019-03-20T17:37:59.657Z,99.90
2019-03-20T17:40:28.765Z,99.90
2019-03-20T17:42:57.358Z,99.90
2019-03-20T17:45:27.266Z,99.90
2019-03-20T17:47:55.936Z,99.90
2019-03-20T17:50:35.735Z,99.90
2019-03-20T17:53:05.606Z,99.90
2019-03-20T17:55:34.512Z,99.90
2019-03-20T17:58:03.205Z,99.90
2019-03-20T18:00:36.798Z,99.90
2019-03-20T18:03:06.842Z,99.90
2019-03-20T18:05:35.551Z,99.90
2019-03-20T18:08:05.374Z,99.90
2019-03-20T18:10:33.989Z,99.90
2019-03-20T18:13:02.584Z,99.90
2019-03-20T18:15:31.230Z,99.90
2019-03-20T18:18:00.840Z,99.90
2019-03-20T18:20:29.470Z,99.90
2019-03-20T18:22:58.131Z,99.90
2019-03-20T18:25:26.789Z,99.90
2019-03-20T18:27:55.406Z,99.90
2019-03-20T18:30:27.823Z,99.90
2019-03-20T18:32:56.503Z,99.90
2019-03-20T18:35:25.883Z,99.90
2019-03-20T18:37:57.185Z,99.90
2019-03-20T18:40:26.910Z,99.90
2019-03-20T18:42:55.672Z,99.90
2019-03-20T18:45:26.438Z,99.90
2019-03-20T18:47:55.329Z,99.90
2019-03-20T18:50:24.447Z,99.90
2019-03-20T18:52:53.111Z,99.90
2019-03-20T18:55:21.691Z,99.90
2019-03-20T18:57:50.544Z,99.90
2019-03-20T19:00:26.664Z,99.90
2019-03-20T19:02:57.450Z,99.90
2019-03-20T19:05:35.028Z,99.90
2019-03-20T19:08:04.159Z,99.90
2019-03-20T19:10:32.736Z,99.90
2019-03-20T19:13:01.781Z,99.90
2019-03-20T19:15:30.536Z,99.90
2019-03-20T19:17:59.105Z,99.90
2019-03-20T19:20:27.915Z,99.90
2019-03-20T19:22:56.553Z,99.90
2019-03-20T19:25:25.107Z,99.90
2019-03-20T19:27:54.010Z,99.90
2019-03-20T19:30:24.205Z,99.90
2019-03-20T19:32:53.017Z,99.90
2019-03-20T19:35:21.630Z,99.90
2019-03-20T19:37:50.223Z,99.90
2019-03-20T19:40:22.956Z,99.90
2019-03-20T19:42:51.508Z,99.90
2019-03-20T19:45:20.113Z,99.90
2019-03-20T19:47:48.691Z,99.90
2019-03-20T19:50:21.367Z,99.90
2019-03-20T19:52:49.968Z,99.90
2019-03-20T19:55:19.276Z,99.90
2019-03-20T19:57:47.877Z,99.90
2019-03-20T20:00:18.836Z,99.90
2019-03-20T20:02:47.579Z,99.90
2019-03-20T20:05:16.432Z,99.90
2019-03-20T20:07:45.160Z,99.90
2019-03-20T20:10:15.216Z,99.90
2019-03-20T20:12:43.973Z,99.90
2019-03-20T20:15:18.107Z,99.90
2019-03-20T20:17:47.164Z,99.90
2019-03-20T20:20:18.495Z,99.90
2019-03-20T20:22:47.146Z,99.90
2019-03-20T20:25:16.109Z,99.90
2019-03-20T20:27:44.692Z,99.90
2019-03-20T20:30:15.914Z,99.90
2019-03-20T20:32:45.368Z,99.90
2019-03-20T20:35:15.528Z,99.90
2019-03-20T20:37:46.118Z,99.90
2019-03-20T20:40:17.591Z,99.90
2019-03-20T20:42:46.235Z,99.90
2019-03-20T20:45:15.025Z,99.90
2019-03-20T20:47:43.661Z,99.90
2019-03-20T20:50:16.278Z,99.90
2019-03-20T20:52:45.126Z,99.90
2019-03-20T20:55:15.935Z,99.90
2019-03-20T20:57:44.509Z,99.90
2019-03-20T21:00:26.350Z,99.90
2019-03-20T21:02:54.920Z,99.90
2019-03-20T21:05:23.579Z,99.90
2019-03-20T21:07:52.181Z,99.90
2019-03-20T21:10:27.285Z,99.90
2019-03-20T21:12:57.370Z,99.90
2019-03-20T21:15:37.609Z,99.90
2019-03-20T21:18:15.156Z,99.90
2019-03-20T21:20:44.887Z,99.90
2019-03-20T21:23:32.790Z,99.90
2019-03-20T21:26:02.622Z,99.90
2019-03-20T21:28:52.306Z,99.90
2019-03-20T21:31:29.746Z,99.90
2019-03-20T21:34:22.520Z,99.90
2019-03-20T21:37:27.438Z,99.90
2019-03-20T21:39:56.033Z,99.90
2019-03-20T21:43:06.879Z,99.90
2019-03-20T21:45:32.596Z,99.90
2019-03-20T21:48:01.170Z,99.90
2019-03-20T21:50:44.568Z,99.90
2019-03-20T21:53:25.297Z,99.90
2019-03-20T21:56:16.729Z,99.90
2019-03-20T21:58:51.058Z,99.90
2019-03-20T22:01:37.921Z,99.90
2019-03-20T22:04:06.490Z,99.90
2019-03-20T22:06:53.334Z,99.90
2019-03-20T22:09:25.366Z,99.90
2019-03-20T22:12:13.494Z,99.90
2019-03-20T22:14:44.831Z,99.90
2019-03-20T22:17:33.310Z,99.90
2019-03-20T22:20:24.332Z,99.90
2019-03-20T22:23:10.709Z,99.90
2019-03-20T22:25:57.383Z,99.90
2019-03-20T22:28:45.843Z,99.90
2019-03-20T22:31:14.408Z,99.90
2019-03-20T22:34:19.311Z,99.90
2019-03-20T22:36:47.917Z,99.90
2019-03-20T22:39:22.123Z,99.90
2019-03-20T22:42:05.653Z,99.90
2019-03-20T22:44:35.856Z,99.90
2019-03-20T22:47:37.949Z,99.90
2019-03-20T22:50:27.231Z,99.90
2019-03-20T22:53:04.851Z,99.90
2019-03-20T22:55:47.877Z,99.90
2019-03-20T22:58:22.156Z,99.90
2019-03-20T23:00:53.790Z,99.90
2019-03-20T23:03:37.158Z,99.90
2019-03-20T23:06:06.581Z,99.90
2019-03-20T23:08:35.223Z,99.90
2019-03-20T23:11:03.784Z,99.90
2019-03-20T23:13:40.951Z,99.90
2019-03-20T23:16:02.966Z,99.90
2019-03-20T23:18:31.572Z,99.90
2019-03-20T23:21:00.149Z,99.90
2019-03-20T23:23:28.970Z,99.90
2019-03-20T23:25:57.535Z,99.90
2019-03-20T23:28:26.134Z,99.90
2019-03-20T23:30:54.700Z,99.90
2019-03-20T23:33:23.288Z,99.90
2019-03-20T23:35:51.870Z,99.90
2019-03-20T23:38:20.602Z,99.90
2019-03-20T23:40:49.172Z,99.90
2019-03-20T23:43:17.775Z,99.90
2019-03-20T23:45:46.357Z,99.90
2019-03-20T23:48:20.810Z,99.90
2019-03-20T23:50:52.459Z,99.90
2019-03-20T23:53:21.089Z,99.90
2019-03-20T23:55:49.673Z,99.90
2019-03-20T23:58:18.265Z,99.90
